createdAt,value
2024-04-22T00:01:36.269Z,4.19
2024-04-22T00:04:04.184Z,4.13
2024-04-22T00:06:32.016Z,4.25
2024-04-22T00:08:59.684Z,4.25
2024-04-22T00:11:27.387Z,4.38
2024-04-22T00:13:55.056Z,4.25
2024-04-22T00:16:22.735Z,4.25
2024-04-22T00:18:50.379Z,4.31
2024-04-22T00:21:17.995Z,4.25
2024-04-22T00:23:45.686Z,4.31
2024-04-22T00:26:13.386Z,4.25
2024-04-22T00:28:41.174Z,4.06
2024-04-22T00:31:10.580Z,4.13
2024-04-22T00:33:38.281Z,4.00
2024-04-22T00:36:06.278Z,4.00
2024-04-22T00:38:34.222Z,3.88
2024-04-22T00:41:01.951Z,3.81
2024-04-22T00:43:29.847Z,3.81
2024-04-22T00:45:58.577Z,3.69
2024-04-22T00:48:28.354Z,3.88
2024-04-22T00:50:59.194Z,3.88
2024-04-22T00:53:28.857Z,3.94
2024-04-22T00:55:57.739Z,3.94
2024-04-22T00:58:28.432Z,3.94
2024-04-22T01:00:59.009Z,3.88
2024-04-22T01:03:27.379Z,3.81
2024-04-22T01:05:56.475Z,3.56
2024-04-22T01:08:24.173Z,3.25
2024-04-22T01:10:52.423Z,3.19
2024-04-22T01:13:20.920Z,3.38
2024-04-22T01:15:48.550Z,3.25
2024-04-22T01:18:20.533Z,3.25
2024-04-22T01:20:48.428Z,3.31
2024-04-22T01:23:16.166Z,3.38
2024-04-22T01:25:48.709Z,3.44
2024-04-22T01:28:16.405Z,3.44
2024-04-22T01:30:44.052Z,3.38
2024-04-22T01:33:11.804Z,3.44
2024-04-22T01:35:39.488Z,3.50
2024-04-22T01:38:07.109Z,3.38
2024-04-22T01:40:34.862Z,3.19
2024-04-22T01:43:02.555Z,3.00
2024-04-22T01:45:30.175Z,3.13
2024-04-22T01:47:57.844Z,2.81
2024-04-22T01:50:25.512Z,2.75
2024-04-22T01:52:53.117Z,2.63
2024-04-22T01:55:20.768Z,2.50
2024-04-22T01:57:48.403Z,2.50
2024-04-22T02:00:16.130Z,2.56
2024-04-22T02:02:43.818Z,2.38
2024-04-22T02:05:11.559Z,2.31
2024-04-22T02:07:39.198Z,2.13
2024-04-22T02:10:17.510Z,2.00
2024-04-22T02:12:51.292Z,2.13
2024-04-22T02:15:18.907Z,2.31
2024-04-22T02:17:46.645Z,2.44
2024-04-22T02:20:14.736Z,2.50
2024-04-22T02:22:42.449Z,2.44
2024-04-22T02:25:10.213Z,2.44
2024-04-22T02:27:37.885Z,2.63
2024-04-22T02:30:06.253Z,2.69
2024-04-22T02:32:35.666Z,2.56
2024-04-22T02:35:03.424Z,2.13
2024-04-22T02:37:31.094Z,2.00
2024-04-22T02:39:58.723Z,1.88
2024-04-22T02:42:26.351Z,1.81
2024-04-22T02:44:53.981Z,1.81
2024-04-22T02:47:21.655Z,1.69
2024-04-22T02:49:49.292Z,1.75
2024-04-22T02:52:16.933Z,2.00
2024-04-22T02:54:44.562Z,2.19
2024-04-22T02:57:12.253Z,2.25
2024-04-22T02:59:39.936Z,2.44
2024-04-22T03:02:07.549Z,2.38
2024-04-22T03:04:35.187Z,2.38
2024-04-22T03:07:04.927Z,2.38
2024-04-22T03:09:36.118Z,2.38
2024-04-22T03:12:03.870Z,2.38
2024-04-22T03:14:31.497Z,2.38
2024-04-22T03:16:59.660Z,2.38
2024-04-22T03:19:27.457Z,2.44
2024-04-22T03:21:55.508Z,2.44
2024-04-22T03:24:23.694Z,2.44
2024-04-22T03:26:51.393Z,2.50
2024-04-22T03:29:19.082Z,2.50
2024-04-22T03:31:46.853Z,2.44
2024-04-22T03:34:14.717Z,2.50
2024-04-22T03:36:42.343Z,2.56
2024-04-22T03:39:09.983Z,2.63
2024-04-22T03:41:37.617Z,2.56
2024-04-22T03:44:05.404Z,2.44
2024-04-22T03:46:51.873Z,2.44
2024-04-22T03:49:38.402Z,2.25
2024-04-22T03:52:07.625Z,2.25
2024-04-22T03:54:35.255Z,2.38
2024-04-22T03:57:02.938Z,2.31
2024-04-22T03:59:30.583Z,2.13
2024-04-22T04:01:58.285Z,2.00
2024-04-22T04:04:26.113Z,1.88
2024-04-22T04:06:53.899Z,1.81
2024-04-22T04:09:21.746Z,1.88
2024-04-22T04:11:49.802Z,1.69
2024-04-22T04:14:17.445Z,1.63
2024-04-22T04:16:45.862Z,1.63
2024-04-22T04:19:13.643Z,1.56
2024-04-22T04:21:41.292Z,1.56
2024-04-22T04:24:08.940Z,1.69
2024-04-22T04:26:36.677Z,1.88
2024-04-22T04:29:04.342Z,1.94
2024-04-22T04:31:32.053Z,1.94
2024-04-22T04:33:59.727Z,2.06
2024-04-22T04:36:27.340Z,1.94
2024-04-22T04:38:55.014Z,2.06
2024-04-22T04:41:23.297Z,2.19
2024-04-22T04:43:51.073Z,2.19
2024-04-22T04:46:18.815Z,2.06
2024-04-22T04:48:46.450Z,2.06
2024-04-22T04:51:14.115Z,1.88
2024-04-22T04:53:41.747Z,1.94
2024-04-22T04:56:09.364Z,1.88
2024-04-22T04:58:37.014Z,1.88
2024-04-22T05:01:05.668Z,1.75
2024-04-22T05:03:33.425Z,1.88
2024-04-22T05:06:04.471Z,2.13
2024-04-22T05:08:32.074Z,2.19
2024-04-22T05:11:05.601Z,2.31
2024-04-22T05:13:33.396Z,2.25
2024-04-22T05:16:01.115Z,2.56
2024-04-22T05:18:28.783Z,2.56
2024-04-22T05:20:56.436Z,2.56
2024-04-22T05:23:24.209Z,2.81
2024-04-22T05:25:51.852Z,2.88
2024-04-22T05:28:20.024Z,2.88
2024-04-22T05:30:47.674Z,2.94
2024-04-22T05:33:34.085Z,3.06
2024-04-22T05:36:13.033Z,3.06
2024-04-22T05:38:44.664Z,2.94
2024-04-22T05:41:13.430Z,3.00
2024-04-22T05:43:41.279Z,3.00
2024-04-22T05:46:11.790Z,3.00
2024-04-22T05:48:39.663Z,2.88
2024-04-22T05:51:07.739Z,3.00
2024-04-22T05:53:35.407Z,3.00
2024-04-22T05:56:03.168Z,3.19
2024-04-22T05:58:30.903Z,3.44
2024-04-22T06:00:59.561Z,3.44
2024-04-22T06:03:27.366Z,3.56
2024-04-22T06:05:55.061Z,3.63
2024-04-22T06:08:22.843Z,3.63
2024-04-22T06:10:50.603Z,3.94
2024-04-22T06:13:19.706Z,4.13
2024-04-22T06:15:47.357Z,4.25
2024-04-22T06:18:15.047Z,4.38
2024-04-22T06:20:42.700Z,4.56
2024-04-22T06:23:10.406Z,4.13
2024-04-22T06:25:38.071Z,4.25
2024-04-22T06:28:06.176Z,4.50
2024-04-22T06:30:33.877Z,4.50
2024-04-22T06:33:01.841Z,4.56
2024-04-22T06:35:29.673Z,4.75
2024-04-22T06:37:57.717Z,4.88
2024-04-22T06:40:25.443Z,4.94
2024-04-22T06:42:53.163Z,5.06
2024-04-22T06:45:20.804Z,5.19
2024-04-22T06:47:48.525Z,5.13
2024-04-22T06:50:16.653Z,5.25
2024-04-22T06:52:44.424Z,5.19
2024-04-22T06:55:13.137Z,5.44
2024-04-22T06:57:40.773Z,5.69
2024-04-22T07:00:08.900Z,5.81
2024-04-22T07:02:36.637Z,5.94
2024-04-22T07:05:04.711Z,6.06
2024-04-22T07:07:34.035Z,6.19
2024-04-22T07:10:01.966Z,6.13
2024-04-22T07:12:29.617Z,6.19
2024-04-22T07:14:57.415Z,6.50
2024-04-22T07:17:25.292Z,6.56
2024-04-22T07:19:54.636Z,6.75
2024-04-22T07:22:22.572Z,6.88
2024-04-22T07:24:57.751Z,6.94
2024-04-22T07:27:31.943Z,6.94
2024-04-22T07:30:00.621Z,7.13
2024-04-22T07:32:29.418Z,7.19
2024-04-22T07:34:57.822Z,7.38
2024-04-22T07:37:44.250Z,7.50
2024-04-22T07:40:20.070Z,7.38
2024-04-22T07:42:49.466Z,7.44
2024-04-22T07:45:18.537Z,7.69
2024-04-22T07:47:49.562Z,7.50
2024-04-22T07:50:17.382Z,7.56
2024-04-22T07:52:45.649Z,7.69
2024-04-22T07:55:14.217Z,7.75
2024-04-22T07:57:43.589Z,8.06
2024-04-22T08:00:13.106Z,7.94
2024-04-22T08:02:42.046Z,8.13
2024-04-22T08:05:10.705Z,8.19
2024-04-22T08:07:42.413Z,8.50
2024-04-22T08:10:10.296Z,8.44
2024-04-22T08:12:38.318Z,8.25
2024-04-22T08:15:06.427Z,8.38
2024-04-22T08:17:34.533Z,8.38
2024-04-22T08:20:02.405Z,8.38
2024-04-22T08:22:31.644Z,8.69
2024-04-22T08:25:02.335Z,8.63
2024-04-22T08:27:30.882Z,8.50
2024-04-22T08:30:01.310Z,8.38
2024-04-22T08:32:29.008Z,8.69
2024-04-22T08:34:56.904Z,9.00
2024-04-22T08:37:24.672Z,8.88
2024-04-22T08:39:52.365Z,8.88
2024-04-22T08:42:24.220Z,8.88
2024-04-22T08:44:53.944Z,8.88
2024-04-22T08:47:22.774Z,9.19
2024-04-22T08:49:51.061Z,9.19
2024-04-22T08:52:20.321Z,9.69
2024-04-22T08:54:51.252Z,9.56
2024-04-22T08:57:19.189Z,9.69
2024-04-22T08:59:49.238Z,9.88
2024-04-22T09:02:17.651Z,10.06
2024-04-22T09:04:46.209Z,10.31
2024-04-22T09:07:20.084Z,10.25
2024-04-22T09:10:07.746Z,10.44
2024-04-22T09:12:36.915Z,10.63
2024-04-22T09:15:05.857Z,10.44
2024-04-22T09:17:34.308Z,10.19
2024-04-22T09:20:02.597Z,10.44
2024-04-22T09:22:32.233Z,9.88
2024-04-22T09:25:00.148Z,9.06
2024-04-22T09:27:30.150Z,8.44
2024-04-22T09:30:08.067Z,8.13
2024-04-22T09:32:37.566Z,8.00
2024-04-22T09:35:19.145Z,7.63
2024-04-22T09:37:50.601Z,6.94
2024-04-22T09:40:21.128Z,6.63
2024-04-22T09:42:49.789Z,6.63
2024-04-22T09:45:17.735Z,6.63
2024-04-22T09:47:47.442Z,6.38
2024-04-22T09:50:18.252Z,6.75
2024-04-22T09:52:50.114Z,6.69
2024-04-22T09:55:18.280Z,6.63
2024-04-22T09:57:50.219Z,6.94
2024-04-22T10:00:19.145Z,7.44
2024-04-22T10:02:47.838Z,7.31
2024-04-22T10:05:18.069Z,7.38
2024-04-22T10:07:45.866Z,7.38
2024-04-22T10:10:14.487Z,7.56
2024-04-22T10:12:43.266Z,8.13
2024-04-22T10:15:17.203Z,8.75
2024-04-22T10:17:46.477Z,8.38
2024-04-22T10:20:16.288Z,8.44
2024-04-22T10:22:46.003Z,8.69
2024-04-22T10:25:20.317Z,9.38
2024-04-22T10:27:48.242Z,9.44
2024-04-22T10:30:16.160Z,9.50
2024-04-22T10:32:43.511Z,9.50
2024-04-22T10:35:11.300Z,10.25
2024-04-22T10:37:39.778Z,10.50
2024-04-22T10:40:08.619Z,10.31
2024-04-22T10:42:36.864Z,10.50
2024-04-22T10:45:04.910Z,10.75
2024-04-22T10:47:34.022Z,10.81
2024-04-22T10:50:02.359Z,10.56
2024-04-22T10:52:30.928Z,10.50
2024-04-22T10:54:58.875Z,10.00
2024-04-22T10:57:28.300Z,9.88
2024-04-22T10:59:57.306Z,9.63
2024-04-22T11:02:25.346Z,9.38
2024-04-22T11:04:53.598Z,9.25
2024-04-22T11:07:26.084Z,9.38
2024-04-22T11:09:54.999Z,9.50
2024-04-22T11:12:27.359Z,10.13
2024-04-22T11:14:59.106Z,10.00
2024-04-22T11:17:26.814Z,10.88
2024-04-22T11:19:54.801Z,10.94
2024-04-22T11:22:24.359Z,10.44
2024-04-22T11:24:52.531Z,10.00
2024-04-22T11:27:20.451Z,10.25
2024-04-22T11:29:48.320Z,10.19
2024-04-22T11:32:16.134Z,10.13
2024-04-22T11:34:43.881Z,10.00
2024-04-22T11:37:11.517Z,10.25
2024-04-22T11:39:39.167Z,10.13
2024-04-22T11:42:06.997Z,9.88
2024-04-22T11:44:34.738Z,9.50
2024-04-22T11:47:02.490Z,9.44
2024-04-22T11:49:30.182Z,9.38
2024-04-22T11:51:57.874Z,9.19
2024-04-22T11:54:25.619Z,9.31
2024-04-22T11:56:53.305Z,9.56
2024-04-22T11:59:20.914Z,9.56
2024-04-22T12:01:48.796Z,9.44
2024-04-22T12:04:16.561Z,9.44
2024-04-22T12:06:44.627Z,9.50
2024-04-22T12:09:12.617Z,9.81
2024-04-22T12:11:40.451Z,10.69
2024-04-22T12:14:08.102Z,10.38
2024-04-22T12:16:35.816Z,10.63
2024-04-22T12:19:03.567Z,10.25
2024-04-22T12:21:31.236Z,9.94
2024-04-22T12:23:58.896Z,9.56
2024-04-22T12:26:26.499Z,9.44
2024-04-22T12:28:54.188Z,9.75
2024-04-22T12:31:22.171Z,10.06
2024-04-22T12:33:57.911Z,10.44
2024-04-22T12:36:29.653Z,10.88
2024-04-22T12:38:57.256Z,11.19
2024-04-22T12:41:24.862Z,10.81
2024-04-22T12:43:52.665Z,10.75
2024-04-22T12:46:20.342Z,10.81
2024-04-22T12:49:06.936Z,10.56
2024-04-22T12:51:34.582Z,10.31
2024-04-22T12:54:02.200Z,10.38
2024-04-22T12:56:29.820Z,10.88
2024-04-22T12:58:59.574Z,11.06
2024-04-22T13:01:28.337Z,10.94
2024-04-22T13:03:56.066Z,10.19
2024-04-22T13:06:23.755Z,10.38
2024-04-22T13:08:51.389Z,10.81
2024-04-22T13:11:23.129Z,10.75
2024-04-22T13:13:51.054Z,10.81
2024-04-22T13:16:19.379Z,11.06
2024-04-22T13:18:47.103Z,11.00
2024-04-22T13:21:14.825Z,11.06
2024-04-22T13:23:42.729Z,11.00
2024-04-22T13:26:10.413Z,10.56
2024-04-22T13:28:38.069Z,10.50
2024-04-22T13:31:05.851Z,10.81
2024-04-22T13:33:33.592Z,10.88
2024-04-22T13:36:01.404Z,11.06
2024-04-22T13:38:29.041Z,11.13
2024-04-22T13:40:56.911Z,11.81
2024-04-22T13:43:25.006Z,11.50
2024-04-22T13:45:52.886Z,11.19
2024-04-22T13:48:20.876Z,11.06
2024-04-22T13:50:48.129Z,11.06
2024-04-22T13:53:23.855Z,10.69
2024-04-22T13:55:59.323Z,11.31
2024-04-22T13:58:27.792Z,11.38
2024-04-22T14:00:56.070Z,11.00
2024-04-22T14:03:24.094Z,11.25
2024-04-22T14:05:51.887Z,10.94
2024-04-22T14:08:19.503Z,11.06
2024-04-22T14:10:47.248Z,11.06
2024-04-22T14:13:15.123Z,10.81
2024-04-22T14:15:47.559Z,11.25
2024-04-22T14:18:16.280Z,11.44
2024-04-22T14:20:44.530Z,11.19
2024-04-22T14:23:12.206Z,11.44
2024-04-22T14:25:40.340Z,11.56
2024-04-22T14:28:08.189Z,11.25
2024-04-22T14:30:36.043Z,10.94
2024-04-22T14:33:03.841Z,10.75
2024-04-22T14:35:32.287Z,10.25
2024-04-22T14:38:01.619Z,10.00
2024-04-22T14:40:29.873Z,9.69
2024-04-22T14:42:57.558Z,9.69
2024-04-22T14:45:25.271Z,9.88
2024-04-22T14:47:55.155Z,10.13
2024-04-22T14:50:23.342Z,10.13
2024-04-22T14:52:51.320Z,9.81
2024-04-22T14:55:19.430Z,10.00
2024-04-22T14:57:47.191Z,9.88
2024-04-22T15:00:14.951Z,9.69
2024-04-22T15:02:42.660Z,9.69
2024-04-22T15:05:10.462Z,9.56
2024-04-22T15:07:38.298Z,9.50
2024-04-22T15:10:06.435Z,9.31
2024-04-22T15:12:34.125Z,9.44
2024-04-22T15:15:01.821Z,9.69
2024-04-22T15:17:29.547Z,9.63
2024-04-22T15:19:57.283Z,10.19
2024-04-22T15:22:25.078Z,9.94
2024-04-22T15:24:52.728Z,10.06
2024-04-22T15:27:20.772Z,10.25
2024-04-22T15:29:48.476Z,10.31
2024-04-22T15:32:16.192Z,10.13
2024-04-22T15:34:44.162Z,9.81
2024-04-22T15:37:12.117Z,9.69
2024-04-22T15:39:43.137Z,9.69
2024-04-22T15:42:10.752Z,9.44
2024-04-22T15:44:38.453Z,9.38
2024-04-22T15:47:06.150Z,9.31
2024-04-22T15:49:33.922Z,9.38
2024-04-22T15:52:03.669Z,9.44
2024-04-22T15:54:31.813Z,9.56
2024-04-22T15:56:59.460Z,9.88
2024-04-22T15:59:27.143Z,9.56
2024-04-22T16:01:54.783Z,9.44
2024-04-22T16:04:22.638Z,9.63
2024-04-22T16:06:50.311Z,9.50
2024-04-22T16:09:17.931Z,9.25
2024-04-22T16:11:45.789Z,9.38
2024-04-22T16:14:12.854Z,9.38
2024-04-22T16:16:40.477Z,9.75
2024-04-22T16:19:08.076Z,9.69
2024-04-22T16:21:35.679Z,9.50
2024-04-22T16:24:03.481Z,9.75
2024-04-22T16:26:31.555Z,9.94
2024-04-22T16:28:59.482Z,9.81
2024-04-22T16:31:27.159Z,9.88
2024-04-22T16:33:54.779Z,9.88
2024-04-22T16:36:22.416Z,9.50
2024-04-22T16:38:50.020Z,9.69
2024-04-22T16:41:17.624Z,9.50
2024-04-22T16:43:45.426Z,9.38
2024-04-22T16:46:13.077Z,9.38
2024-04-22T16:48:41.799Z,9.44
2024-04-22T16:51:09.485Z,9.38
2024-04-22T16:53:37.109Z,9.25
2024-04-22T16:56:06.185Z,9.06
2024-04-22T16:58:33.944Z,9.00
2024-04-22T17:01:01.909Z,9.19
2024-04-22T17:03:29.570Z,9.06
2024-04-22T17:05:57.558Z,9.13
2024-04-22T17:08:25.318Z,8.75
2024-04-22T17:10:53.118Z,8.88
2024-04-22T17:13:20.865Z,8.94
2024-04-22T17:15:48.527Z,8.94
2024-04-22T17:18:16.241Z,8.69
2024-04-22T17:20:45.469Z,8.56
2024-04-22T17:23:18.183Z,8.38
2024-04-22T17:25:45.834Z,8.19
2024-04-22T17:28:13.558Z,8.44
2024-04-22T17:30:41.238Z,8.25
2024-04-22T17:33:08.982Z,8.13
2024-04-22T17:35:36.675Z,8.25
2024-04-22T17:38:04.411Z,8.38
2024-04-22T17:40:32.048Z,8.31
2024-04-22T17:42:59.742Z,8.19
2024-04-22T17:45:27.441Z,8.19
2024-04-22T17:47:55.533Z,8.13
2024-04-22T17:50:23.231Z,8.25
2024-04-22T17:52:50.925Z,8.25
2024-04-22T17:55:18.626Z,7.88
2024-04-22T17:57:46.260Z,7.88
2024-04-22T18:00:16.679Z,7.88
2024-04-22T18:02:45.068Z,7.75
2024-04-22T18:05:12.954Z,7.75
2024-04-22T18:07:40.729Z,7.56
2024-04-22T18:10:08.687Z,7.50
2024-04-22T18:12:38.027Z,7.56
2024-04-22T18:15:06.120Z,7.56
2024-04-22T18:17:33.935Z,7.50
2024-04-22T18:20:01.589Z,7.38
2024-04-22T18:22:35.176Z,7.31
2024-04-22T18:25:06.834Z,7.25
2024-04-22T18:27:34.462Z,7.13
2024-04-22T18:30:03.781Z,7.19
2024-04-22T18:32:31.873Z,7.00
2024-04-22T18:34:59.586Z,7.06
2024-04-22T18:37:28.364Z,7.13
2024-04-22T18:39:56.959Z,6.88
2024-04-22T18:42:24.603Z,6.81
2024-04-22T18:44:52.243Z,6.75
2024-04-22T18:47:19.929Z,6.81
2024-04-22T18:49:47.587Z,6.94
2024-04-22T18:52:16.700Z,6.69
2024-04-22T18:54:44.329Z,6.81
2024-04-22T18:57:11.990Z,6.75
2024-04-22T18:59:40.566Z,6.63
2024-04-22T19:02:08.312Z,6.56
2024-04-22T19:04:35.955Z,6.44
2024-04-22T19:07:03.797Z,6.56
2024-04-22T19:09:31.430Z,6.44
2024-04-22T19:11:59.135Z,6.31
2024-04-22T19:14:26.788Z,6.25
2024-04-22T19:16:54.475Z,6.31
2024-04-22T19:19:25.419Z,6.25
2024-04-22T19:21:53.259Z,6.19
2024-04-22T19:24:20.929Z,6.13
2024-04-22T19:26:48.549Z,6.06
2024-04-22T19:29:16.218Z,6.19
2024-04-22T19:31:43.949Z,6.13
2024-04-22T19:34:11.715Z,6.06
2024-04-22T19:36:39.366Z,5.94
2024-04-22T19:39:07.075Z,6.13
2024-04-22T19:41:34.689Z,5.88
2024-04-22T19:44:02.498Z,5.88
2024-04-22T19:46:31.140Z,5.88
2024-04-22T19:49:00.094Z,5.81
2024-04-22T19:51:27.731Z,5.81
2024-04-22T19:53:55.393Z,5.81
2024-04-22T19:56:23.009Z,5.75
2024-04-22T19:58:50.782Z,5.69
2024-04-22T20:01:19.037Z,5.69
2024-04-22T20:03:48.937Z,5.63
2024-04-22T20:06:16.730Z,5.63
2024-04-22T20:08:46.840Z,5.63
2024-04-22T20:11:14.795Z,5.44
2024-04-22T20:13:43.840Z,5.56
2024-04-22T20:16:26.443Z,5.44
2024-04-22T20:18:56.735Z,5.56
2024-04-22T20:21:25.441Z,5.56
2024-04-22T20:23:54.210Z,5.44
2024-04-22T20:26:23.207Z,5.31
2024-04-22T20:28:53.730Z,5.31
2024-04-22T20:31:22.234Z,5.44
2024-04-22T20:33:50.150Z,5.38
2024-04-22T20:36:17.829Z,5.25
2024-04-22T20:38:45.532Z,5.19
2024-04-22T20:41:13.300Z,5.25
2024-04-22T20:43:40.980Z,5.19
2024-04-22T20:46:08.653Z,5.06
2024-04-22T20:48:40.373Z,5.19
2024-04-22T20:51:09.620Z,5.06
2024-04-22T20:53:37.282Z,5.19
2024-04-22T20:56:06.140Z,5.06
2024-04-22T20:58:35.843Z,5.06
2024-04-22T21:01:07.462Z,5.06
2024-04-22T21:03:35.789Z,5.06
2024-04-22T21:06:05.811Z,5.06
2024-04-22T21:08:34.555Z,4.94
2024-04-22T21:11:05.243Z,4.94
2024-04-22T21:13:44.707Z,4.94
2024-04-22T21:16:13.496Z,4.75
2024-04-22T21:18:41.373Z,4.75
2024-04-22T21:21:09.071Z,4.81
2024-04-22T21:23:36.681Z,4.81
2024-04-22T21:26:04.534Z,4.75
2024-04-22T21:28:33.264Z,4.88
2024-04-22T21:31:00.968Z,4.69
2024-04-22T21:33:43.653Z,4.69
2024-04-22T21:36:16.238Z,4.81
2024-04-22T21:38:43.910Z,4.69
2024-04-22T21:41:11.527Z,4.63
2024-04-22T21:43:41.352Z,4.63
2024-04-22T21:46:09.035Z,4.56
2024-04-22T21:48:36.719Z,4.50
2024-04-22T21:51:04.477Z,4.50
2024-04-22T21:53:32.141Z,4.44
2024-04-22T21:56:09.058Z,4.31
2024-04-22T21:59:32.817Z,4.44
2024-04-22T22:03:00.938Z,4.44
2024-04-22T22:06:25.280Z,4.19
2024-04-22T22:08:52.822Z,4.19
2024-04-22T22:11:20.585Z,4.19
2024-04-22T22:13:49.006Z,4.19
2024-04-22T22:16:16.648Z,4.06
2024-04-22T22:18:44.286Z,4.00
2024-04-22T22:21:11.959Z,3.94
2024-04-22T22:23:39.587Z,3.94
2024-04-22T22:26:07.242Z,3.81
2024-04-22T22:28:34.911Z,4.06
2024-04-22T22:31:02.593Z,4.00
2024-04-22T22:33:30.201Z,4.06
2024-04-22T22:35:57.802Z,4.00
2024-04-22T22:38:25.431Z,4.00
2024-04-22T22:40:53.369Z,3.94
2024-04-22T22:43:21.121Z,3.94
2024-04-22T22:45:48.776Z,3.88
2024-04-22T22:48:16.572Z,3.94
2024-04-22T22:50:44.251Z,3.88
2024-04-22T22:53:11.857Z,3.81
2024-04-22T22:55:39.502Z,3.75
2024-04-22T22:58:07.155Z,3.81
2024-04-22T23:00:34.774Z,3.88
2024-04-22T23:03:02.492Z,3.81
2024-04-22T23:05:30.136Z,3.81
2024-04-22T23:07:57.860Z,3.88
2024-04-22T23:10:25.548Z,4.00
2024-04-22T23:12:53.163Z,3.94
2024-04-22T23:15:20.795Z,3.88
2024-04-22T23:17:48.517Z,3.94
2024-04-22T23:20:16.198Z,3.94
2024-04-22T23:22:43.944Z,3.88
2024-04-22T23:25:11.643Z,3.69
2024-04-22T23:27:39.644Z,3.81
2024-04-22T23:30:08.743Z,3.63
2024-04-22T23:32:36.409Z,3.69
2024-04-22T23:35:04.377Z,3.69
2024-04-22T23:37:32.079Z,3.63
2024-04-22T23:39:59.698Z,3.69
2024-04-22T23:42:27.469Z,3.75
2024-04-22T23:44:55.113Z,3.75
2024-04-22T23:47:22.750Z,3.69
2024-04-22T23:49:50.372Z,3.50
2024-04-22T23:52:18.006Z,3.69
2024-04-22T23:54:45.619Z,3.50
2024-04-22T23:57:13.245Z,3.63
2024-04-22T23:59:40.851Z,3.50
